Griffiss, NY

10:09 AM EDT on August 29, 2014 (GMT -0400)
Oswego County | Change Station
CLOSE
Current Station
Airport
Location: Fulton,
Elevation: 472 ft
Nearby Weather Stations

Elev 472 ft 43.35 °N, 76.38 °W | Updated 15 minutes ago

Clear
Clear
65 °F
Feels Like 65 °F
N
4
Wind Variable Wind from South

Today
High -- | Low -- °F
--% Chance of Precip.
Yesterday
High -- | Low -- °F
Precip. -- in
6:22 AM 7:41 PM
Waxing Crescent, 14% visible
Pressure 30.22 in
Visibility 10.0 miles
Clouds Clear
Dew Point 53 °F
Humidity 65%
Rainfall 0.00 in
Snow Depth Not available.
UV 4 out of 12
Pollen 8.50 out of 12
PM2.5 Good
Flu Activity Not available.
METAR KFZY 291354Z AUTO 17003KT 10SM CLR 18/12 A3022 RMK AO2 SLP233 T01830117

More Conditions Fewer Conditions

Pressure 30.22 in
Visibility 10.0 miles
Clouds Clear
Dew Point 53 °F
Humidity 65%
Rainfall 0.00 in
Snow Depth Not available.
UV 4 out of 12
Pollen 8.50 out of 12
PM2.5 Good
Flu Activity Not available.
METAR KFZY 291354Z AUTO 17003KT 10SM CLR 18/12 A3022 RMK AO2 SLP233 T01830117

More Conditions Fewer Conditions

10-Day Weather Forecast

Almanac

Astronomy

Aug. 29, 2014 Rise Set
Actual Time 6:22 AM EDT 7:41 PM EDT
Civil Twilight 5:52 AM EDT 8:11 PM EDT
Nautical Twilight 5:17 AM EDT 8:46 PM EDT
Astronomical Twilight 4:39 AM EDT 9:24 PM EDT
Moon 10:17 AM EDT 9:30 PM EDT
Length of Visible Light 14h 18m
Length of Day
13h 19m
Tomorrow will be 2m 49s shorter.
Waxing Crescent, 14% of the Moon is Illuminated
Today
Waxing Crescent
Sep 2
First Quarter
Sep 8
Full
Sep 15
Last Quarter
Sep 24
New

Today's Extremes

State Highs State Lows

Community

WunderPhotos

Upload Photos

1,748,240 photos uploaded!

Nearby

Air Quality

  Air Quality AQ Index Pollutant
Yesterday Good
OZONE
Yesterday Good
PM2.5
Current Good
PM2.5
Friday Good
OZONE
Friday Good
PM2.5

Snow Depth

Station Depth Elevation
No new snow has been reported.

Earthquake Activity

City Distance Mag. Time & Date
No recent earthquake activity has been reported nearby.
Minimum magnitude displayed is 2.5.

Coastal Water Temperatures

Place Temperature
No Stations Reporting

Nearby Weather Stations